Time;durP1;ratioP1;P1;durP2;ratioP2;P2;SDS_P1;SDS_P2;PMS_P1;PMS_P2;Temp;Humidity;BMP_temperature;BMP_pressure;BME280_temperature;BME280_humidity;BME280_pressure;Samples;Min_cycle;Max_cycle;Signal;HPM_P1;HPM_P2
2021/01/11 06:39:34;;;;;;;68.40;36.47;;;;;;;20.16;100.00;1691403.37;128286;1088;104448;-74
2021/01/11 06:42:11;;;;;;;64.80;34.57;;;;;;;20.15;100.00;1691552.00;127714;1091;104868;-79
2021/01/11 06:44:42;;;;;;;67.80;36.63;;;;;;;20.15;100.00;1691682.25;128043;1088;104454;-78
2021/01/11 06:47:10;;;;;;;68.27;35.50;;;;;;;20.14;100.00;1691659.50;128040;1089;104437;-78
2021/01/11 06:49:38;;;;;;;68.10;35.30;;;;;;;20.15;100.00;1691773.37;128056;1088;104468;-79
2021/01/11 06:52:09;;;;;;;64.10;33.35;;;;;;;20.14;100.00;1691803.00;128158;1088;104622;-78
2021/01/11 06:54:41;;;;;;;67.13;34.63;;;;;;;20.14;100.00;1691866.75;128144;1089;104503;-76
2021/01/11 06:57:13;;;;;;;65.40;34.00;;;;;;;20.14;100.00;1691909.75;128058;1088;104462;-80
2021/01/11 07:01:41;;;;;;;66.97;34.83;;;;;;;20.18;100.00;1691251.12;126602;1098;104486;-77
2021/01/11 07:04:12;;;;;;;64.30;35.40;;;;;;;20.16;100.00;1691431.25;126484;1099;104417;-75
2021/01/11 07:06:43;;;;;;;64.67;36.30;;;;;;;20.17;100.00;1691535.75;127190;1095;104526;-76
2021/01/11 07:09:15;;;;;;;62.13;34.03;;;;;;;20.17;100.00;1691567.87;127112;1095;104497;-78
2021/01/11 07:11:50;;;;;;;70.17;37.27;;;;;;;20.18;100.00;1691533.00;127039;1095;104535;-79
2021/01/11 07:14:23;;;;;;;67.13;36.50;;;;;;;20.18;100.00;1691377.62;127095;1094;104481;-76
2021/01/11 07:16:54;;;;;;;67.30;36.97;;;;;;;20.20;100.00;1691134.12;126944;1095;104436;-77
2021/01/11 07:19:42;;;;;;;70.27;38.20;;;;;;;20.22;100.00;1690864.62;127162;1095;104494;-77
2021/01/11 07:22:21;;;;;;;71.60;37.20;;;;;;;20.24;100.00;1690322.13;127085;1095;104487;-77
2021/01/11 07:24:53;;;;;;;65.60;36.77;;;;;;;20.26;100.00;1690193.12;127071;1095;105188;-79
2021/01/11 07:27:26;;;;;;;69.10;35.13;;;;;;;20.28;100.00;1690045.12;127062;1094;104644;-79
2021/01/11 07:29:58;;;;;;;67.17;36.87;;;;;;;20.29;100.00;1689991.12;127228;1095;102822;-78
2021/01/11 07:32:36;;;;;;;64.73;35.73;;;;;;;20.31;100.00;1689749.75;127050;1095;104538;-76
2021/01/11 07:35:09;;;;;;;69.83;37.70;;;;;;;20.32;100.00;1689610.75;126905;1095;104436;-77
2021/01/11 07:37:39;;;;;;;62.27;35.33;;;;;;;20.33;100.00;1689447.25;127064;1095;104427;-77
2021/01/11 07:40:16;;;;;;;62.03;33.97;;;;;;;20.33;100.00;1689269.62;126964;1095;104477;-75
2021/01/11 07:42:51;;;;;;;61.70;34.67;;;;;;;20.34;100.00;1689195.87;127074;1095;104484;-79
2021/01/11 07:48:24;;;;;;;63.27;33.57;;;;;;;20.36;100.00;1689023.12;126976;1095;104442;-77
2021/01/11 07:51:12;;;;;;;62.80;34.00;;;;;;;20.37;100.00;1688710.87;126821;1095;104435;-76
2021/01/11 07:53:50;;;;;;;66.77;35.47;;;;;;;20.38;100.00;1688583.50;127051;1095;104417;-76
2021/01/11 07:56:22;;;;;;;59.25;32.10;;;;;;;20.39;100.00;1688586.12;127129;1095;104547;-76
2021/01/11 07:58:58;;;;;;;61.17;30.97;;;;;;;20.39;100.00;1688488.75;127028;1095;104491;-75
2021/01/11 08:01:31;;;;;;;61.57;31.80;;;;;;;20.39;100.00;1688563.50;127081;1095;104447;-77
2021/01/11 08:04:10;;;;;;;59.47;32.80;;;;;;;20.38;100.00;1688415.50;126970;1095;104884;-77
2021/01/11 08:06:56;;;;;;;58.10;31.20;;;;;;;20.38;100.00;1688311.50;126992;1095;104435;-79
2021/01/11 08:09:30;;;;;;;57.37;30.30;;;;;;;20.39;100.00;1688103.62;127033;1095;104430;-76
2021/01/11 08:12:17;;;;;;;62.40;34.17;;;;;;;20.40;100.00;1687918.00;127337;1095;104541;-76
2021/01/11 08:15:07;;;;;;;82.43;48.93;;;;;;;20.40;100.00;1687953.37;127501;1095;104509;-76
2021/01/11 08:18:06;;;;;;;71.03;40.33;;;;;;;20.42;100.00;1687519.37;127122;1095;104477;-74
2021/01/11 08:20:47;;;;;;;64.55;35.90;;;;;;;20.43;100.00;1687538.50;127074;1095;104544;-76
2021/01/11 08:23:24;;;;;;;59.60;34.13;;;;;;;20.44;100.00;1687571.00;127159;1095;104420;-77
2021/01/11 08:26:05;;;;;;;54.77;30.03;;;;;;;20.44;100.00;1687673.00;127144;1095;104596;-77
2021/01/11 08:28:41;;;;;;;56.43;30.03;;;;;;;20.45;100.00;1687694.87;127009;1095;104422;-77
2021/01/11 08:31:14;;;;;;;54.38;29.55;;;;;;;20.46;100.00;1687649.00;127711;1095;104451;-75
2021/01/11 08:33:48;;;;;;;58.27;31.27;;;;;;;20.47;100.00;1687543.75;127035;1095;104438;-76
2021/01/11 08:36:27;;;;;;;59.07;32.30;;;;;;;20.46;100.00;1687547.12;127215;1095;104448;-74
2021/01/11 08:39:14;;;;;;;56.37;29.35;;;;;;;20.46;100.00;1687473.25;127409;1095;104561;-74
2021/01/11 08:41:49;;;;;;;60.17;31.67;;;;;;;20.47;100.00;1687296.00;127479;1092;104417;-80
2021/01/11 08:44:30;;;;;;;60.80;31.90;;;;;;;20.47;100.00;1687308.62;127489;1091;104484;-77
2021/01/11 08:47:07;;;;;;;62.63;31.87;;;;;;;20.49;100.00;1686855.50;127184;1093;104443;-77
2021/01/11 08:49:55;;;;;;;58.13;27.43;;;;;;;20.52;100.00;1686374.50;127691;1092;104433;-75
2021/01/11 08:52:32;;;;;;;49.40;24.90;;;;;;;20.56;100.00;1685554.50;127666;1091;104552;-76
2021/01/11 08:55:16;;;;;;;53.37;25.20;;;;;;;20.60;100.00;1685069.12;127480;1091;104557;-78
2021/01/11 08:57:59;;;;;;;48.17;25.27;;;;;;;20.61;100.00;1684828.87;127441;1092;104417;-76
2021/01/11 09:00:31;;;;;;;52.90;27.73;;;;;;;20.62;100.00;1684625.87;127851;1091;104570;-76
2021/01/11 09:03:06;;;;;;;46.50;25.40;;;;;;;20.64;100.00;1684357.37;127401;1092;104483;-78
2021/01/11 09:05:39;;;;;;;49.83;26.20;;;;;;;20.65;100.00;1684214.75;127454;1092;104605;-77
2021/01/11 09:08:19;;;;;;;51.17;25.77;;;;;;;20.68;100.00;1683787.87;127632;1092;104487;-74
2021/01/11 09:11:07;;;;;;;50.30;25.40;;;;;;;20.69;100.00;1683773.37;127103;1092;104482;-72
2021/01/11 09:13:42;;;;;;;64.33;31.57;;;;;;;20.70;100.00;1683569.75;127404;1092;104416;-77
2021/01/11 09:16:16;;;;;;;52.57;28.10;;;;;;;20.72;100.00;1683272.87;127407;1092;104410;-76
2021/01/11 09:18:47;;;;;;;51.83;26.90;;;;;;;20.75;100.00;1682819.37;127542;1092;104499;-76
2021/01/11 09:21:29;;;;;;;52.20;26.97;;;;;;;20.77;100.00;1682374.50;127568;1092;104407;-77
2021/01/11 09:24:03;;;;;;;50.47;26.70;;;;;;;20.78;100.00;1682110.50;127535;1092;104406;-76
2021/01/11 09:26:36;;;;;;;53.65;29.45;;;;;;;20.80;100.00;1681904.37;127340;1092;104442;-77
2021/01/11 09:29:11;;;;;;;51.63;26.57;;;;;;;20.79;100.00;1682158.00;127884;1092;104445;-75
2021/01/11 09:31:42;;;;;;;48.00;25.03;;;;;;;20.78;100.00;1682280.12;127422;1091;104503;-77
2021/01/11 09:34:11;;;;;;;51.10;25.60;;;;;;;20.77;100.00;1682371.00;127464;1092;104910;-76
2021/01/11 09:36:45;;;;;;;52.77;26.67;;;;;;;20.76;100.00;1682490.12;127457;1092;104929;-77
2021/01/11 09:39:17;;;;;;;46.57;24.90;;;;;;;20.75;100.00;1682633.37;127417;1091;104608;-76
2021/01/11 09:41:49;;;;;;;52.83;26.70;;;;;;;20.75;100.00;1682778.75;127542;1092;104545;-76
2021/01/11 09:44:19;;;;;;;50.03;26.00;;;;;;;20.74;100.00;1682881.12;127777;1091;104448;-75
2021/01/11 09:46:54;;;;;;;50.20;27.07;;;;;;;20.73;100.00;1683179.00;127627;1091;104471;-74
2021/01/11 09:49:25;;;;;;;47.33;23.83;;;;;;;20.72;100.00;1683255.62;127605;1092;104410;-75
2021/01/11 09:51:55;;;;;;;50.45;26.15;;;;;;;20.72;100.00;1683306.50;127551;1092;104414;-77
2021/01/11 09:54:41;;;;;;;51.77;27.30;;;;;;;20.71;100.00;1683432.87;127535;1092;104484;-77
2021/01/11 09:57:13;;;;;;;51.43;28.10;;;;;;;20.69;100.00;1683547.87;127538;1092;104435;-74
2021/01/11 09:59:48;;;;;;;55.00;27.50;;;;;;;20.68;100.00;1683890.25;127632;1091;104490;-75
2021/01/11 10:02:38;;;;;;;53.77;27.40;;;;;;;20.66;100.00;1684292.25;127457;1092;104426;-74
2021/01/11 10:05:12;;;;;;;53.90;27.00;;;;;;;20.64;100.00;1684464.50;127408;1091;104492;-77
2021/01/11 10:07:45;;;;;;;52.15;27.62;;;;;;;20.63;100.00;1684657.50;127435;1092;104542;-77
2021/01/11 10:10:14;;;;;;;52.67;28.43;;;;;;;20.62;100.00;1684779.87;127508;1091;104439;-76
2021/01/11 10:12:45;;;;;;;53.47;27.10;;;;;;;20.62;100.00;1684859.25;127423;1093;104471;-75
2021/01/11 10:15:17;;;;;;;47.37;23.87;;;;;;;20.61;100.00;1684857.37;127474;1092;104462;-75
2021/01/11 10:17:48;;;;;;;51.23;27.37;;;;;;;20.60;100.00;1684909.12;128312;1092;104511;-76
2021/01/11 10:20:22;;;;;;;51.10;28.10;;;;;;;20.59;100.00;1685074.00;128878;1092;102418;-78
2021/01/11 10:22:51;;;;;;;52.27;26.47;;;;;;;20.59;100.00;1685079.75;128406;1091;103069;-76
2021/01/11 10:25:22;;;;;;;42.23;22.03;;;;;;;20.59;100.00;1684993.37;127317;1092;104426;-74
2021/01/11 10:27:55;;;;;;;47.73;24.73;;;;;;;20.60;100.00;1684937.25;127520;1092;104414;-75
2021/01/11 10:30:27;;;;;;;50.67;24.67;;;;;;;20.60;100.00;1684988.50;127366;1091;104430;-75
2021/01/11 10:33:00;;;;;;;50.50;25.13;;;;;;;20.60;100.00;1684875.37;128749;1092;102421;-75
2021/01/11 10:35:32;;;;;;;48.10;24.20;;;;;;;20.60;100.00;1684951.62;127495;1091;104628;-74
2021/01/11 10:38:07;;;;;;;45.53;23.40;;;;;;;20.60;100.00;1685058.87;127550;1091;104491;-74
2021/01/11 10:40:37;;;;;;;46.70;23.97;;;;;;;20.59;100.00;1685201.50;127713;1094;104439;-75
2021/01/11 10:43:07;;;;;;;46.43;23.07;;;;;;;20.58;100.00;1685425.25;126880;1094;104442;-75
2021/01/11 10:45:37;;;;;;;46.80;24.40;;;;;;;20.58;100.00;1685648.50;126812;1094;104423;-76
2021/01/11 10:48:09;;;;;;;45.87;22.80;;;;;;;20.57;100.00;1685615.75;126841;1094;104626;-75
2021/01/11 10:50:39;;;;;;;45.67;22.33;;;;;;;20.57;100.00;1685680.00;126833;1094;104639;-74
2021/01/11 10:53:15;;;;;;;41.90;21.23;;;;;;;20.58;100.00;1685588.62;127308;1094;105209;-75
2021/01/11 10:55:48;;;;;;;47.70;23.23;;;;;;;20.58;100.00;1685369.75;126938;1094;104442;-75
2021/01/11 10:58:18;;;;;;;45.30;23.27;;;;;;;20.59;100.00;1685201.50;126830;1094;104596;-74
2021/01/11 11:00:48;;;;;;;44.87;23.90;;;;;;;20.60;100.00;1684931.37;126984;1094;104720;-77
2021/01/11 11:03:22;;;;;;;47.87;23.87;;;;;;;20.62;100.00;1684584.75;126963;1093;104538;-75
2021/01/11 11:05:52;;;;;;;40.07;20.33;;;;;;;20.64;100.00;1684264.12;126717;1092;104598;-76
2021/01/11 11:08:43;;;;;;;43.43;20.90;;;;;;;20.65;100.00;1684094.75;126759;1092;104723;-74
2021/01/11 11:11:16;;;;;;;36.53;17.43;;;;;;;20.67;100.00;1683715.25;126904;1092;104605;-76
2021/01/11 11:13:48;;;;;;;41.77;20.40;;;;;;;20.68;100.00;1683443.00;127226;1092;104641;-76
2021/01/11 11:16:22;;;;;;;35.80;18.03;;;;;;;20.68;100.00;1683352.12;127222;1092;104518;-77
2021/01/11 11:18:58;;;;;;;36.67;18.70;;;;;;;20.70;100.00;1683164.62;127397;1093;104461;-79
2021/01/11 11:21:28;;;;;;;40.27;19.33;;;;;;;20.70;100.00;1683187.37;127397;1092;104407;-78
2021/01/11 11:24:10;;;;;;;37.20;18.47;;;;;;;20.70;100.00;1683170.00;127422;1091;104640;-78
2021/01/11 11:26:39;;;;;;;40.67;19.40;;;;;;;20.71;100.00;1682807.87;127552;1092;104564;-76
2021/01/11 11:29:12;;;;;;;40.60;20.53;;;;;;;20.73;100.00;1682593.37;127268;1092;104558;-78
2021/01/11 11:31:49;;;;;;;44.17;21.20;;;;;;;20.75;100.00;1682297.50;127381;1092;104600;-77
2021/01/11 11:34:26;;;;;;;39.13;18.20;;;;;;;20.77;100.00;1681832.37;128277;1091;103294;-76
2021/01/11 11:36:59;;;;;;;39.80;18.80;;;;;;;20.78;100.00;1681674.25;127226;1092;104477;-75
2021/01/11 11:39:54;;;;;;;35.23;18.30;;;;;;;20.78;100.00;1681669.37;127389;1092;104551;-76
2021/01/11 11:42:35;;;;;;;40.77;19.10;;;;;;;20.77;100.00;1681741.87;127660;1091;104481;-74
2021/01/11 11:45:18;;;;;;;39.27;20.30;;;;;;;20.76;100.00;1681729.50;127483;1092;104443;-76
2021/01/11 11:47:50;;;;;;;42.40;20.57;;;;;;;20.75;100.00;1681855.00;127576;1092;104500;-74
2021/01/11 11:50:31;;;;;;;43.17;20.80;;;;;;;20.74;100.00;1682074.87;127419;1091;104535;-77
2021/01/11 11:53:14;;;;;;;39.67;18.80;;;;;;;20.73;100.00;1682286.75;127504;1092;104555;-75
2021/01/11 11:55:58;;;;;;;42.53;20.57;;;;;;;20.72;100.00;1682445.50;127895;1092;104458;-77
2021/01/11 11:58:31;;;;;;;47.40;21.73;;;;;;;20.72;100.00;1682488.37;127522;1092;104436;-75
2021/01/11 12:01:02;;;;;;;45.33;22.30;;;;;;;20.72;100.00;1682618.00;127455;1092;104421;-76
2021/01/11 12:03:32;;;;;;;41.73;20.43;;;;;;;20.70;100.00;1682938.62;127407;1092;104439;-76
2021/01/11 12:06:03;;;;;;;38.93;19.57;;;;;;;20.68;100.00;1683174.00;127442;1092;104416;-75
2021/01/11 12:08:37;;;;;;;40.67;19.77;;;;;;;20.67;100.00;1683301.87;128088;1092;104487;-75
2021/01/11 12:11:15;;;;;;;39.87;19.90;;;;;;;20.68;100.00;1683146.62;127602;1091;104458;-75
2021/01/11 12:16:35;;;;;;;37.27;18.30;;;;;;;20.68;100.00;1683101.75;127132;1095;104417;-74
2021/01/11 12:19:05;;;;;;;42.90;21.93;;;;;;;20.67;100.00;1683244.87;127039;1095;104439;-74
2021/01/11 12:21:41;;;;;;;40.73;20.63;;;;;;;20.66;100.00;1683471.12;127080;1095;104567;-73
2021/01/11 12:24:17;;;;;;;44.03;22.23;;;;;;;20.65;100.00;1683636.62;127229;1095;104423;-75
2021/01/11 12:26:51;;;;;;;43.60;21.17;;;;;;;20.64;100.00;1683914.12;127160;1095;104442;-73
2021/01/11 12:31:34;;;;;;;41.13;20.23;;;;;;;20.66;100.00;1683384.12;121502;1132;103336;-75
2021/01/11 12:34:06;;;;;;;41.67;22.13;;;;;;;20.63;100.00;1683939.87;121793;1149;102453;-75
2021/01/11 12:36:38;;;;;;;41.60;20.57;;;;;;;20.63;100.00;1684024.00;121904;1149;103562;-78
2021/01/11 12:39:09;;;;;;;45.30;22.27;;;;;;;20.63;100.00;1684000.75;122132;1149;102345;-76
2021/01/11 12:41:42;;;;;;;43.90;22.80;;;;;;;20.63;100.00;1683872.25;121704;1150;103426;-75
2021/01/11 12:44:17;;;;;;;45.87;22.93;;;;;;;20.64;100.00;1683754.25;121513;1151;103362;-74
2021/01/11 12:46:49;;;;;;;49.70;24.63;;;;;;;20.63;100.00;1683777.50;122174;1145;102482;-75
2021/01/11 12:49:21;;;;;;;53.90;25.70;;;;;;;20.63;100.00;1683866.37;122426;1146;102507;-74
2021/01/11 12:51:50;;;;;;;50.70;23.90;;;;;;;20.64;100.00;1683917.00;121785;1147;102320;-73
2021/01/11 12:54:23;;;;;;;46.33;23.17;;;;;;;20.64;100.00;1683611.62;122442;1147;103738;-75
2021/01/11 12:56:55;;;;;;;44.50;21.33;;;;;;;20.65;100.00;1683584.00;122521;1145;103461;-75
2021/01/11 12:59:25;;;;;;;44.77;22.00;;;;;;;20.64;100.00;1683686.12;122241;1146;102300;-75
2021/01/11 13:01:59;;;;;;;47.97;23.27;;;;;;;20.64;100.00;1683670.75;122192;1146;103110;-73
2021/01/11 13:04:39;;;;;;;50.40;24.33;;;;;;;20.63;100.00;1683698.75;122417;1146;102465;-74
2021/01/11 13:07:13;;;;;;;42.50;21.53;;;;;;;20.63;100.00;1683733.25;121803;1128;217295;-75
2021/01/11 13:09:47;;;;;;;43.70;22.33;;;;;;;20.62;100.00;1683885.37;121694;1128;102544;-75
2021/01/11 13:12:20;;;;;;;41.90;20.37;;;;;;;20.61;100.00;1684170.12;121820;1129;102535;-74
2021/01/11 13:14:52;;;;;;;46.23;20.73;;;;;;;20.59;100.00;1684123.50;122430;1146;103399;-76
2021/01/11 13:17:21;;;;;;;42.37;20.73;;;;;;;20.59;100.00;1684314.87;122420;1146;103630;-75
2021/01/11 13:19:57;;;;;;;43.77;22.23;;;;;;;20.60;100.00;1684231.63;122475;1146;103279;-75
2021/01/11 13:22:30;;;;;;;46.37;21.57;;;;;;;20.61;100.00;1683987.62;122418;1146;103377;-75
2021/01/11 13:25:03;;;;;;;42.43;23.57;;;;;;;20.62;100.00;1683601.50;122256;1146;102152;-75
2021/01/11 13:27:36;;;;;;;45.83;22.50;;;;;;;20.62;100.00;1683599.00;122403;1146;103544;-75
2021/01/11 13:30:29;;;;;;;52.20;24.65;;;;;;;20.63;100.00;1683511.62;122020;1153;102213;-76
2021/01/11 13:32:58;;;;;;;47.47;23.87;;;;;;;20.64;100.00;1683300.75;122078;1152;102561;-74
2021/01/11 13:35:27;;;;;;;46.33;23.20;;;;;;;20.65;100.00;1683218.50;122575;1142;104410;-75
2021/01/11 13:38:03;;;;;;;45.13;23.23;;;;;;;20.65;100.00;1683139.62;122845;1142;102288;-78
2021/01/11 13:40:44;;;;;;;50.33;25.53;;;;;;;20.66;100.00;1683128.37;122486;1144;103584;-76
2021/01/11 13:43:24;;;;;;;48.50;24.27;;;;;;;20.65;100.00;1683077.75;122675;1143;102113;-79
2021/01/11 13:45:53;;;;;;;49.57;25.17;;;;;;;20.65;100.00;1683225.12;122481;1144;102317;-78
2021/01/11 13:48:22;;;;;;;46.73;23.67;;;;;;;20.65;100.00;1683243.87;122683;1143;102269;-77
2021/01/11 13:50:52;;;;;;;48.03;23.70;;;;;;;20.66;100.00;1683152.00;122272;1145;103279;-76
2021/01/11 13:53:21;;;;;;;46.33;22.93;;;;;;;20.66;100.00;1683126.37;122096;1153;103548;-74
2021/01/11 13:55:50;;;;;;;46.90;24.37;;;;;;;20.66;100.00;1683192.62;122701;1144;103224;-74
2021/01/11 13:58:23;;;;;;;49.20;23.87;;;;;;;20.65;100.00;1683456.50;122604;1142;102375;-73
2021/01/11 14:00:53;;;;;;;;;;;;;;;20.64;100.00;1683534.00;122686;1143;102063;-75
2021/01/11 14:03:22;;;;;;;49.97;23.63;;;;;;;20.63;100.00;1683656.25;122707;1144;102313;-73
2021/01/11 14:05:51;;;;;;;52.43;25.13;;;;;;;20.62;100.00;1683821.75;122708;1143;102862;-74
2021/01/11 14:08:32;;;;;;;53.63;24.57;;;;;;;20.61;100.00;1684072.12;122680;1144;103675;-76
2021/01/11 14:11:01;;;;;;;51.73;23.83;;;;;;;20.59;100.00;1684369.88;122071;1152;103419;-74
2021/01/11 14:13:30;;;;;;;51.40;23.70;;;;;;;20.58;100.00;1684476.75;122124;1153;103381;-76
2021/01/11 14:16:09;;;;;;;47.70;21.93;;;;;;;20.57;100.00;1684546.87;122307;1144;102227;-75
2021/01/11 14:18:41;;;;;;;46.50;22.17;;;;;;;20.57;100.00;1684592.87;122655;1144;104943;-73
2021/01/11 14:21:12;;;;;;;46.67;22.13;;;;;;;20.56;100.00;1684826.62;122652;1144;102629;-75
2021/01/11 14:23:42;;;;;;;43.30;20.87;;;;;;;20.54;100.00;1685066.37;122677;1144;103420;-73
2021/01/11 14:26:13;;;;;;;44.70;22.43;;;;;;;20.53;100.00;1685326.75;122701;1143;103328;-73
2021/01/11 14:28:42;;;;;;;46.83;21.57;;;;;;;20.51;100.00;1685734.87;122705;1144;102352;-74
2021/01/11 14:31:12;;;;;;;40.63;19.57;;;;;;;20.50;100.00;1685896.12;122170;1144;103571;-75
2021/01/11 14:33:41;;;;;;;44.65;23.10;;;;;;;20.49;100.00;1686147.75;122452;1144;102506;-75
2021/01/11 14:36:13;;;;;;;46.67;22.53;;;;;;;20.48;100.00;1686165.62;122227;1144;103383;-75
2021/01/11 14:38:42;;;;;;;40.47;19.73;;;;;;;20.47;100.00;1686287.75;122643;1144;103383;-75
2021/01/11 14:41:15;;;;;;;44.07;21.90;;;;;;;20.47;100.00;1686334.62;122464;1144;102342;-76
2021/01/11 14:43:45;;;;;;;41.67;19.33;;;;;;;20.46;100.00;1686534.50;122608;1144;103053;-75
2021/01/11 14:46:25;;;;;;;42.20;22.03;;;;;;;20.45;100.00;1686705.37;122140;1144;103398;-77
2021/01/11 14:48:55;;;;;;;42.50;21.63;;;;;;;20.44;100.00;1686799.87;122462;1144;103358;-77
2021/01/11 14:51:25;;;;;;;44.40;21.57;;;;;;;20.43;100.00;1687006.50;122062;1152;102366;-77
2021/01/11 14:54:01;;;;;;;43.17;19.73;;;;;;;20.42;100.00;1687097.25;122056;1152;102239;-76
2021/01/11 14:56:31;;;;;;;45.97;22.40;;;;;;;20.42;100.00;1687165.87;122636;1144;103518;-78
2021/01/11 14:59:00;;;;;;;48.30;22.40;;;;;;;20.42;100.00;1687138.25;122469;1144;103745;-77
2021/01/11 15:01:32;;;;;;;45.23;22.47;;;;;;;20.41;100.00;1687288.37;122049;1153;103069;-78
2021/01/11 15:04:01;;;;;;;46.27;22.33;;;;;;;20.41;100.00;1687270.50;122610;1142;102055;-77
2021/01/11 15:06:30;;;;;;;50.77;24.47;;;;;;;20.41;100.00;1687346.87;122635;1143;103363;-76
2021/01/11 15:09:00;;;;;;;51.87;24.77;;;;;;;20.41;100.00;1687354.12;122650;1143;103293;-74
2021/01/11 15:11:29;;;;;;;46.90;25.10;;;;;;;20.41;100.00;1687326.62;122603;1144;102088;-77
2021/01/11 15:13:59;;;;;;;48.70;24.37;;;;;;;20.41;100.00;1687392.75;122209;1144;102433;-75
2021/01/11 15:16:28;;;;;;;56.60;25.50;;;;;;;20.41;100.00;1687351.63;122304;1144;102444;-76
2021/01/11 15:18:59;;;;;;;51.27;24.93;;;;;;;20.40;100.00;1687695.00;122622;1142;102137;-78
2021/01/11 15:21:29;;;;;;;49.93;26.27;;;;;;;20.40;100.00;1687750.37;122394;1144;104578;-78
2021/01/11 15:23:58;;;;;;;49.73;24.97;;;;;;;20.39;100.00;1687844.50;122546;1144;103431;-76
2021/01/11 15:26:27;;;;;;;48.27;25.43;;;;;;;20.39;100.00;1687935.75;122436;1144;102435;-75
2021/01/11 15:28:56;;;;;;;50.70;26.93;;;;;;;20.39;100.00;1687853.12;122389;1144;103348;-74
2021/01/11 15:31:27;;;;;;;56.17;28.40;;;;;;;20.39;100.00;1687886.12;122080;1144;103404;-74
2021/01/11 15:33:57;;;;;;;54.83;26.30;;;;;;;20.40;100.00;1687813.75;122323;1144;104834;-75
2021/01/11 15:36:27;;;;;;;51.03;25.17;;;;;;;20.40;100.00;1687763.50;121963;1153;102256;-77
2021/01/11 15:39:01;;;;;;;54.07;26.77;;;;;;;20.40;100.00;1687762.62;122023;1144;102581;-75
2021/01/11 15:41:30;;;;;;;54.10;27.50;;;;;;;20.40;100.00;1687739.87;121930;1144;102497;-74
2021/01/11 15:43:59;;;;;;;61.30;29.70;;;;;;;20.40;100.00;1687766.00;122043;1144;102496;-74
2021/01/11 15:46:31;;;;;;;62.67;29.77;;;;;;;20.40;100.00;1687836.87;122546;1144;103479;-75
2021/01/11 15:49:02;;;;;;;57.33;28.50;;;;;;;20.39;100.00;1688028.13;122535;1143;102397;-75
2021/01/11 15:51:33;;;;;;;55.07;28.03;;;;;;;20.39;100.00;1688052.25;122584;1144;102999;-72
2021/01/11 15:54:03;;;;;;;61.10;30.73;;;;;;;20.39;100.00;1688228.50;122430;1144;102679;-75
2021/01/11 15:56:32;;;;;;;57.00;28.93;;;;;;;20.39;100.00;1688208.12;122008;1153;103260;-76
2021/01/11 15:59:01;;;;;;;60.27;34.20;;;;;;;20.38;100.00;1688192.25;122589;1143;103139;-74
2021/01/11 16:01:40;;;;;;;63.50;32.57;;;;;;;20.38;100.00;1688232.75;122279;1144;102447;-74
2021/01/11 16:04:09;;;;;;;51.10;27.23;;;;;;;20.38;100.00;1688256.37;122509;1144;103370;-76
2021/01/11 16:06:43;;;;;;;61.67;30.40;;;;;;;20.38;100.00;1688238.00;122588;1143;103382;-75
2021/01/11 16:09:12;;;;;;;;;;;;;;;20.38;100.00;1688203.62;122072;1148;102537;-78
2021/01/11 16:11:43;;;;;;;53.40;25.77;;;;;;;20.38;100.00;1688348.12;122623;1144;103393;-76
2021/01/11 16:14:15;;;;;;;53.60;27.93;;;;;;;20.38;100.00;1688238.00;121436;1145;104454;-74
2021/01/11 16:17:01;;;;;;;55.50;27.90;;;;;;;20.38;100.00;1688149.75;120780;1144;104448;-76
2021/01/11 16:19:31;;;;;;;52.70;27.50;;;;;;;20.39;100.00;1688161.37;121039;1144;104348;-74
2021/01/11 16:22:00;;;;;;;57.13;29.77;;;;;;;20.39;100.00;1688156.62;120807;1144;104480;-78
2021/01/11 16:24:30;;;;;;;62.50;33.37;;;;;;;20.39;100.00;1688092.87;120835;1144;104355;-75
2021/01/11 16:27:05;;;;;;;68.30;33.27;;;;;;;20.39;100.00;1688109.25;120806;1144;104383;-77
2021/01/11 16:29:35;;;;;;;58.57;31.50;;;;;;;20.40;100.00;1688016.62;120802;1144;104354;-76
2021/01/11 16:32:06;;;;;;;60.17;30.87;;;;;;;20.39;100.00;1688098.13;120606;1144;104367;-76
2021/01/11 16:34:35;;;;;;;67.50;33.17;;;;;;;20.38;100.00;1688195.12;122727;1144;102097;-74
2021/01/11 16:37:05;;;;;;;62.20;32.13;;;;;;;20.38;100.00;1688264.50;120889;1144;105007;-76
2021/01/11 16:39:36;;;;;;;66.47;34.10;;;;;;;20.38;100.00;1688375.12;120805;1144;104445;-75
2021/01/11 16:42:06;;;;;;;78.80;42.23;;;;;;;20.37;100.00;1688575.87;120715;1144;104479;-73
2021/01/11 16:44:39;;;;;;;80.23;42.00;;;;;;;20.37;100.00;1688492.75;120854;1144;104500;-77
2021/01/11 16:47:08;;;;;;;79.43;41.37;;;;;;;20.36;100.00;1688606.25;120948;1144;104369;-75
2021/01/11 16:49:40;;;;;;;73.20;37.50;;;;;;;20.36;100.00;1688678.12;120946;1144;104388;-73
2021/01/11 16:52:09;;;;;;;75.77;41.03;;;;;;;20.36;100.00;1688620.00;120850;1144;104388;-77
2021/01/11 16:54:38;;;;;;;74.10;39.13;;;;;;;20.36;100.00;1688663.00;120936;1144;104351;-72
2021/01/11 16:57:08;;;;;;;73.73;38.20;;;;;;;20.36;100.00;1688533.62;120992;1144;104474;-77
2021/01/11 16:59:37;;;;;;;72.77;35.43;;;;;;;20.36;100.00;1688565.62;121002;1144;104458;-73
2021/01/11 17:02:09;;;;;;;70.77;36.13;;;;;;;20.37;100.00;1688558.87;120999;1144;104532;-74
2021/01/11 17:04:39;;;;;;;64.47;33.37;;;;;;;20.37;100.00;1688535.37;121014;1144;104417;-73
2021/01/11 17:07:10;;;;;;;70.13;36.47;;;;;;;20.36;100.00;1688525.00;120867;1144;104386;-73
2021/01/11 17:09:41;;;;;;;71.47;35.93;;;;;;;20.35;100.00;1688728.75;120921;1144;104486;-73
2021/01/11 17:12:10;;;;;;;71.27;35.03;;;;;;;20.35;100.00;1688818.50;121085;1144;104348;-74
2021/01/11 17:14:39;;;;;;;88.90;44.17;;;;;;;20.35;100.00;1688772.62;121075;1144;104480;-73
2021/01/11 17:17:08;;;;;;;72.13;36.10;;;;;;;20.35;100.00;1688756.62;120985;1144;104349;-73
2021/01/11 17:19:37;;;;;;;69.63;36.97;;;;;;;20.35;100.00;1688769.50;120906;1144;104578;-74
2021/01/11 17:22:06;;;;;;;67.37;36.83;;;;;;;20.34;100.00;1688944.75;121068;1144;104857;-73
2021/01/11 17:24:37;;;;;;;65.43;32.73;;;;;;;20.34;100.00;1689069.87;121041;1144;104373;-74
2021/01/11 17:27:06;;;;;;;66.13;33.87;;;;;;;20.34;100.00;1689092.50;120928;1144;104351;-74
2021/01/11 17:29:36;;;;;;;73.30;37.80;;;;;;;20.33;100.00;1689298.12;120882;1144;104440;-74
2021/01/11 17:32:07;;;;;;;66.93;32.90;;;;;;;20.33;100.00;1689338.12;120805;1144;104409;-75
2021/01/11 17:34:37;;;;;;;69.57;35.53;;;;;;;20.33;100.00;1689490.25;120824;1144;104335;-75
2021/01/11 17:37:07;;;;;;;71.60;37.40;;;;;;;20.32;100.00;1689397.37;120912;1144;104373;-75
2021/01/11 17:39:36;;;;;;;70.03;34.33;;;;;;;20.32;100.00;1689559.75;120923;1144;104492;-76
2021/01/11 17:42:08;;;;;;;68.60;35.77;;;;;;;20.33;100.00;1689442.12;120786;1144;104377;-76
2021/01/11 17:44:37;;;;;;;69.23;34.20;;;;;;;20.33;100.00;1689475.50;120793;1144;104435;-74
2021/01/11 17:47:07;;;;;;;65.47;33.13;;;;;;;20.33;100.00;1689432.00;120930;1144;104380;-76
2021/01/11 17:49:35;;;;;;;69.33;36.33;;;;;;;20.33;100.00;1689448.00;121075;1146;104364;-74
2021/01/11 17:52:06;;;;;;;68.90;34.60;;;;;;;20.34;100.00;1689505.12;121005;1144;104407;-74
2021/01/11 17:54:35;;;;;;;69.43;35.43;;;;;;;20.34;100.00;1689445.00;121140;1144;104473;-73